createdAt,value
2023-08-19T00:02:25.361Z,0.0
2023-08-19T00:05:30.629Z,0.0
2023-08-19T00:08:35.806Z,0.0
2023-08-19T00:11:39.890Z,0.0
2023-08-19T00:14:43.873Z,0.0
2023-08-19T00:17:48.514Z,0.0
2023-08-19T00:20:53.693Z,0.0
2023-08-19T00:23:58.258Z,0.0
2023-08-19T00:27:02.243Z,0.0
2023-08-19T00:30:06.648Z,0.0
2023-08-19T00:36:15.418Z,1.08
2023-08-19T00:39:20.629Z,1.08
2023-08-19T00:42:24.852Z,2.16
2023-08-19T00:45:29.099Z,2.16
2023-08-19T00:48:34.426Z,2.16
2023-08-19T00:51:38.404Z,0.0
2023-08-19T00:54:42.392Z,0.0
2023-08-19T00:57:46.618Z,0.0
2023-08-19T01:02:24.765Z,0.0
2023-08-19T01:05:31.531Z,0.0
2023-08-19T01:08:36.622Z,0.0
2023-08-19T01:11:41.293Z,0.0
2023-08-19T01:14:45.476Z,0.0
2023-08-19T01:17:50.553Z,0.0
2023-08-19T01:20:55.367Z,0.0
2023-08-19T01:23:59.946Z,0.0
2023-08-19T01:27:04.899Z,0.0
2023-08-19T01:30:09.858Z,0.0
2023-08-19T01:33:14.242Z,0.0
2023-08-19T01:36:18.355Z,0.0
2023-08-19T01:39:23.141Z,0.0
2023-08-19T01:42:27.813Z,0.0
2023-08-19T01:45:32.294Z,0.0
2023-08-19T01:48:37.670Z,0.0
2023-08-19T01:51:44.505Z,0.0
2023-08-19T01:54:48.652Z,0.0
2023-08-19T01:57:53.420Z,0.0
2023-08-19T02:02:24.996Z,0.0
2023-08-19T02:05:30.006Z,0.0
2023-08-19T02:08:34.812Z,0.0
2023-08-19T02:11:39.054Z,0.0
2023-08-19T02:14:43.520Z,0.0
2023-08-19T02:17:48.600Z,0.0
2023-08-19T02:20:53.988Z,1.08
2023-08-19T02:23:57.975Z,1.08
2023-08-19T02:27:02.016Z,1.08
2023-08-19T02:30:06.238Z,1.08
2023-08-19T02:33:11.148Z,1.08
2023-08-19T02:36:15.145Z,0.0
2023-08-19T02:39:20.288Z,0.0
2023-08-19T02:42:24.561Z,1.08
2023-08-19T02:45:28.936Z,1.08
2023-08-19T02:48:34.932Z,3.24
2023-08-19T02:51:39.217Z,3.24
2023-08-19T02:54:43.574Z,3.24
2023-08-19T03:02:25.142Z,1.08
2023-08-19T03:05:30.312Z,1.08
2023-08-19T03:08:35.045Z,1.08
2023-08-19T03:14:43.784Z,2.16
2023-08-19T03:17:48.638Z,2.16
2023-08-19T03:20:52.975Z,2.16
2023-08-19T03:23:57.230Z,2.16
2023-08-19T03:27:01.219Z,2.16
2023-08-19T03:30:05.669Z,2.16
2023-08-19T03:33:10.873Z,1.08
2023-08-19T03:36:15.532Z,1.08
2023-08-19T03:39:20.142Z,1.08
2023-08-19T03:42:24.689Z,1.08
2023-08-19T03:48:34.284Z,1.08
2023-08-19T03:51:38.347Z,1.08
2023-08-19T03:54:42.700Z,1.08
2023-08-19T03:57:47.107Z,1.08
2023-08-19T04:02:25.341Z,1.08
2023-08-19T04:07:56.428Z,1.08
2023-08-19T04:11:01.010Z,1.08
2023-08-19T04:14:05.704Z,3.24
2023-08-19T04:17:11.025Z,3.24
2023-08-19T04:20:16.149Z,2.16
2023-08-19T04:23:21.243Z,2.16
2023-08-19T04:26:25.478Z,3.24
2023-08-19T04:29:30.202Z,3.24
2023-08-19T04:32:35.159Z,3.24
2023-08-19T04:35:40.167Z,3.24
2023-08-19T04:38:45.143Z,3.24
2023-08-19T04:41:50.489Z,2.16
2023-08-19T04:44:55.826Z,2.16
2023-08-19T04:48:01.353Z,2.16
2023-08-19T04:51:05.595Z,3.24
2023-08-19T04:54:09.839Z,3.24
2023-08-19T04:57:14.187Z,1.08
2023-08-19T05:02:25.711Z,1.08
2023-08-19T05:05:31.127Z,1.08
2023-08-19T05:08:35.649Z,1.08
2023-08-19T05:11:40.049Z,1.08
2023-08-19T05:14:44.402Z,1.08
2023-08-19T05:17:49.696Z,2.16
2023-08-19T05:20:54.237Z,2.16
2023-08-19T05:23:58.461Z,0.0
2023-08-19T05:27:03.259Z,0.0
2023-08-19T05:30:08.256Z,0.0
2023-08-19T05:33:13.378Z,1.08
2023-08-19T05:36:18.224Z,1.08
2023-08-19T05:39:23.178Z,0.0
2023-08-19T05:42:27.689Z,0.0
2023-08-19T05:45:32.987Z,0.0
2023-08-19T05:48:38.369Z,0.0
2023-08-19T05:54:47.170Z,0.0
2023-08-19T05:57:56.079Z,0.0
2023-08-19T06:05:34.493Z,0.0
2023-08-19T06:08:42.950Z,0.0
2023-08-19T06:11:47.292Z,0.0
2023-08-19T06:14:53.613Z,1.08
2023-08-19T06:17:58.822Z,1.08
2023-08-19T06:21:07.218Z,2.16
2023-08-19T06:24:11.714Z,2.16
2023-08-19T06:27:16.053Z,3.24
2023-08-19T06:30:21.430Z,3.24
2023-08-19T06:33:27.032Z,4.32
2023-08-19T06:36:31.681Z,4.32
2023-08-19T06:39:39.425Z,4.32
2023-08-19T06:42:43.306Z,5.4
2023-08-19T06:45:47.581Z,5.4
2023-08-19T06:48:52.802Z,4.32
2023-08-19T06:51:57.525Z,4.32
2023-08-19T06:55:01.946Z,4.32
2023-08-19T06:58:06.244Z,4.32
2023-08-19T07:02:25.123Z,4.32
2023-08-19T07:05:30.792Z,4.32
2023-08-19T07:08:35.722Z,5.4
2023-08-19T07:11:40.034Z,5.4
2023-08-19T07:14:44.365Z,5.4
2023-08-19T07:17:49.367Z,5.4
2023-08-19T07:20:54.473Z,5.4
2023-08-19T07:24:00.213Z,6.48
2023-08-19T07:27:05.075Z,6.48
2023-08-19T07:33:14.667Z,5.4
2023-08-19T07:36:19.479Z,5.4
2023-08-19T07:39:27.692Z,5.4
2023-08-19T07:42:32.038Z,5.4
2023-08-19T07:45:36.843Z,6.48
2023-08-19T07:48:42.318Z,6.48
2023-08-19T07:51:46.770Z,5.4
2023-08-19T07:54:53.852Z,5.4
2023-08-19T07:57:58.082Z,4.32
2023-08-19T08:02:27.776Z,4.32
2023-08-19T08:05:34.093Z,5.4
2023-08-19T08:08:39.282Z,5.4
2023-08-19T08:11:47.061Z,3.24
2023-08-19T08:14:51.305Z,3.24
2023-08-19T08:17:56.081Z,3.24
2023-08-19T08:21:00.562Z,5.4
2023-08-19T08:24:04.942Z,5.4
2023-08-19T08:27:09.440Z,4.32
2023-08-19T08:30:14.325Z,4.32
2023-08-19T08:33:18.963Z,7.56
2023-08-19T08:36:23.835Z,7.56
2023-08-19T08:39:28.900Z,7.56
2023-08-19T08:42:33.412Z,3.24
2023-08-19T08:45:37.799Z,3.24
2023-08-19T08:48:43.087Z,4.32
2023-08-19T08:51:47.304Z,4.32
2023-08-19T08:54:51.650Z,4.32
2023-08-19T08:57:55.838Z,4.32
2023-08-19T09:02:25.885Z,4.32
2023-08-19T09:05:31.448Z,4.32
2023-08-19T09:11:41.779Z,5.4
2023-08-19T09:14:49.018Z,3.24
2023-08-19T09:17:57.433Z,3.24
2023-08-19T09:21:02.272Z,3.24
2023-08-19T09:24:08.031Z,2.16
2023-08-19T09:28:09.935Z,2.16
2023-08-19T09:31:16.265Z,3.24
2023-08-19T09:34:21.792Z,3.24
2023-08-19T09:37:47.258Z,1.08
2023-08-19T09:40:51.821Z,1.08
2023-08-19T09:43:55.884Z,3.24
2023-08-19T09:47:01.055Z,3.24
2023-08-19T09:53:10.803Z,1.08
2023-08-19T09:56:14.975Z,1.08
2023-08-19T09:59:19.436Z,3.24
2023-08-19T10:02:26.302Z,3.24
2023-08-19T10:05:32.504Z,4.32
2023-08-19T10:08:37.154Z,4.32
2023-08-19T10:11:45.505Z,5.4
2023-08-19T10:14:49.696Z,5.4
2023-08-19T10:17:58.541Z,5.4
2023-08-19T10:21:03.516Z,3.24
2023-08-19T10:24:08.713Z,3.24
2023-08-19T10:27:13.211Z,0.0
2023-08-19T10:30:20.218Z,0.0
2023-08-19T10:36:31.103Z,0.0
2023-08-19T10:39:35.641Z,0.0
2023-08-19T10:42:43.035Z,0.0
2023-08-19T10:45:47.372Z,0.0
2023-08-19T10:48:52.505Z,1.08
2023-08-19T10:51:56.928Z,1.08
2023-08-19T10:55:01.163Z,2.16
2023-08-19T10:58:05.914Z,2.16
2023-08-19T11:02:25.915Z,2.16
2023-08-19T11:05:33.347Z,2.16
2023-08-19T11:08:37.764Z,1.08
2023-08-19T11:11:42.237Z,1.08
2023-08-19T11:14:46.856Z,2.16
2023-08-19T11:17:51.939Z,2.16
2023-08-19T11:20:56.770Z,2.16
2023-08-19T11:27:06.548Z,1.08
2023-08-19T11:30:11.343Z,2.16
2023-08-19T11:33:16.990Z,2.16
2023-08-19T11:36:24.410Z,3.24
2023-08-19T11:39:29.708Z,3.24
2023-08-19T11:42:46.530Z,2.16
2023-08-19T11:45:51.488Z,2.16
2023-08-19T11:48:57.078Z,2.16
2023-08-19T11:52:05.162Z,3.24
2023-08-19T11:55:09.766Z,3.24
2023-08-19T11:58:18.943Z,1.08
2023-08-19T12:02:26.215Z,1.08
2023-08-19T12:05:32.545Z,4.32
2023-08-19T12:08:37.553Z,4.32
2023-08-19T12:11:42.723Z,3.24
2023-08-19T12:14:51.745Z,3.24
2023-08-19T12:17:57.449Z,2.16
2023-08-19T12:21:02.634Z,2.16
2023-08-19T12:24:07.528Z,2.16
2023-08-19T12:27:13.299Z,3.24
2023-08-19T12:30:17.812Z,3.24
2023-08-19T12:33:25.713Z,2.16
2023-08-19T12:36:36.719Z,2.16
2023-08-19T12:39:41.626Z,1.08
2023-08-19T12:43:00.340Z,1.08
2023-08-19T12:46:05.704Z,3.24
2023-08-19T12:49:11.226Z,3.24
2023-08-19T12:52:16.734Z,1.08
2023-08-19T12:55:22.471Z,1.08
2023-08-19T12:58:31.238Z,1.08
2023-08-19T13:02:28.631Z,3.24
2023-08-19T13:05:36.393Z,3.24
2023-08-19T13:08:41.002Z,2.16
2023-08-19T13:11:46.813Z,2.16
2023-08-19T13:14:52.799Z,3.24
2023-08-19T13:17:58.462Z,3.24
2023-08-19T13:21:03.574Z,3.24
2023-08-19T13:24:08.139Z,1.08
2023-08-19T13:30:18.962Z,0.0
2023-08-19T13:33:24.979Z,0.0
2023-08-19T13:36:29.904Z,0.0
2023-08-19T13:39:34.685Z,1.08
2023-08-19T13:42:43.712Z,0.0
2023-08-19T13:45:50.300Z,0.0
2023-08-19T13:52:23.208Z,0.0
2023-08-19T13:55:28.106Z,0.0
2023-08-19T14:02:25.691Z,0.0
2023-08-19T14:05:31.564Z,1.08
2023-08-19T14:08:38.899Z,1.08
2023-08-19T14:11:44.288Z,0.0
2023-08-19T14:14:50.794Z,0.0
2023-08-19T14:17:56.036Z,0.0
2023-08-19T14:21:03.953Z,0.0
2023-08-19T14:24:09.146Z,0.0
2023-08-19T14:27:17.976Z,3.24
2023-08-19T14:30:23.922Z,3.24
2023-08-19T14:33:29.250Z,3.24
2023-08-19T14:36:34.714Z,3.24
2023-08-19T14:39:42.323Z,3.24
2023-08-19T14:42:47.084Z,3.24
2023-08-19T14:45:51.863Z,4.32
2023-08-19T14:48:56.921Z,4.32
2023-08-19T14:52:02.287Z,4.32
2023-08-19T14:55:10.269Z,4.32
2023-08-19T14:58:16.013Z,4.32
2023-08-19T15:02:27.056Z,1.08
2023-08-19T15:05:35.321Z,1.08
2023-08-19T15:08:41.362Z,2.16
2023-08-19T15:11:46.584Z,2.16
2023-08-19T15:14:51.299Z,3.24
2023-08-19T15:17:56.490Z,3.24
2023-08-19T15:21:01.688Z,3.24
2023-08-19T15:24:09.543Z,3.24
2023-08-19T15:27:15.126Z,3.24
2023-08-19T15:30:20.509Z,3.24
2023-08-19T15:33:28.249Z,3.24
2023-08-19T15:36:33.776Z,4.32
2023-08-19T15:39:40.046Z,4.32
2023-08-19T15:42:44.593Z,9.72
2023-08-19T15:45:49.666Z,9.72
2023-08-19T15:48:55.232Z,5.4
2023-08-19T15:52:00.170Z,5.4
2023-08-19T15:55:06.686Z,5.4
2023-08-19T15:58:11.995Z,7.56
2023-08-19T16:02:27.350Z,4.32
2023-08-19T16:07:55.353Z,4.32
2023-08-19T16:11:03.225Z,5.4
2023-08-19T16:14:08.501Z,5.4
2023-08-19T16:17:14.355Z,3.24
2023-08-19T16:20:20.520Z,3.24
2023-08-19T16:23:26.161Z,1.08
2023-08-19T16:26:31.818Z,1.08
2023-08-19T16:29:40.771Z,1.08
2023-08-19T16:32:45.879Z,2.16
2023-08-19T16:35:52.806Z,2.16
2023-08-19T16:39:00.743Z,1.08
2023-08-19T16:42:05.778Z,1.08
2023-08-19T16:45:10.630Z,5.4
2023-08-19T16:48:15.737Z,5.4
2023-08-19T16:51:21.475Z,2.16
2023-08-19T16:54:27.769Z,2.16
2023-08-19T16:57:32.856Z,2.16
2023-08-19T17:02:26.145Z,2.16
2023-08-19T17:05:32.630Z,1.08
2023-08-19T17:08:38.303Z,1.08
2023-08-19T17:11:43.724Z,1.08
2023-08-19T17:14:48.471Z,1.08
2023-08-19T17:17:57.500Z,1.08
2023-08-19T17:21:02.847Z,1.08
2023-08-19T17:24:08.982Z,1.08
2023-08-19T17:27:13.812Z,1.08
2023-08-19T17:30:24.806Z,1.08
2023-08-19T17:33:31.202Z,5.4
2023-08-19T17:36:36.348Z,5.4
2023-08-19T17:39:41.573Z,5.4
2023-08-19T17:42:46.335Z,2.16
2023-08-19T17:45:51.513Z,2.16
2023-08-19T17:48:56.608Z,2.16
2023-08-19T17:52:05.234Z,2.16
2023-08-19T17:55:10.358Z,1.08
2023-08-19T17:58:15.785Z,1.08
2023-08-19T18:02:25.542Z,0.0
2023-08-19T18:05:32.208Z,0.0
2023-08-19T18:08:37.478Z,1.08
2023-08-19T18:11:42.452Z,1.08
2023-08-19T18:14:50.337Z,1.08
2023-08-19T18:17:56.256Z,0.0
2023-08-19T18:21:04.183Z,0.0
2023-08-19T18:24:09.525Z,1.08
2023-08-19T18:27:14.661Z,1.08
2023-08-19T18:30:20.228Z,0.0
2023-08-19T18:33:26.457Z,0.0
2023-08-19T18:36:31.492Z,0.0
2023-08-19T18:39:37.187Z,0.0
2023-08-19T18:42:45.821Z,0.0
2023-08-19T18:45:50.684Z,0.0
2023-08-19T18:48:56.296Z,0.0
2023-08-19T18:52:01.800Z,0.0
2023-08-19T18:55:07.265Z,0.0
2023-08-19T18:58:12.148Z,0.0
2023-08-19T19:02:26.584Z,0.0
2023-08-19T19:05:32.552Z,0.0
2023-08-19T19:08:38.333Z,0.0
2023-08-19T19:11:45.345Z,0.0
2023-08-19T19:14:54.324Z,0.0
2023-08-19T19:18:00.800Z,0.0
2023-08-19T19:21:05.831Z,0.0
2023-08-19T19:24:14.204Z,0.0
2023-08-19T19:27:19.485Z,0.0
2023-08-19T19:30:24.936Z,0.0
2023-08-19T19:33:30.790Z,0.0
2023-08-19T19:36:36.199Z,0.0
2023-08-19T19:39:41.813Z,0.0
2023-08-19T19:42:46.903Z,0.0
2023-08-19T19:45:54.770Z,0.0
2023-08-19T19:49:00.534Z,0.0
2023-08-19T19:52:05.626Z,0.0
2023-08-19T19:55:10.214Z,0.0
2023-08-19T19:58:15.241Z,0.0
2023-08-19T20:02:29.519Z,0.0
2023-08-19T20:05:35.633Z,0.0
2023-08-19T20:08:41.467Z,0.0
2023-08-19T20:12:08.026Z,0.0
2023-08-19T20:15:13.511Z,0.0
2023-08-19T20:18:25.077Z,0.0
2023-08-19T20:21:30.743Z,0.0
2023-08-19T20:24:37.175Z,0.0
2023-08-19T20:27:43.384Z,0.0
2023-08-19T20:30:53.107Z,0.0
2023-08-19T20:33:59.095Z,0.0
2023-08-19T20:37:05.247Z,0.0
2023-08-19T20:40:10.884Z,0.0
2023-08-19T20:43:16.381Z,0.0
2023-08-19T20:46:21.906Z,0.0
2023-08-19T20:49:31.324Z,0.0
2023-08-19T20:52:36.370Z,0.0
2023-08-19T20:55:41.206Z,0.0
2023-08-19T20:58:47.241Z,0.0
2023-08-19T21:02:25.263Z,0.0
2023-08-19T21:05:31.006Z,0.0
2023-08-19T21:08:40.079Z,0.0
2023-08-19T21:11:45.705Z,0.0
2023-08-19T21:14:50.204Z,0.0
2023-08-19T21:17:55.806Z,0.0
2023-08-19T21:21:01.376Z,0.0
2023-08-19T21:24:06.699Z,0.0
2023-08-19T21:27:11.708Z,0.0
2023-08-19T21:30:17.141Z,0.0
2023-08-19T21:33:23.152Z,0.0
2023-08-19T21:36:30.977Z,0.0
2023-08-19T21:39:37.174Z,0.0
2023-08-19T21:42:42.045Z,0.0
2023-08-19T21:45:47.447Z,0.0
2023-08-19T21:48:53.857Z,0.0
2023-08-19T21:52:01.060Z,0.0
2023-08-19T21:55:07.411Z,0.0
2023-08-19T21:58:12.493Z,0.0
2023-08-19T22:02:28.724Z,0.0
2023-08-19T22:05:35.605Z,0.0
2023-08-19T22:08:41.079Z,0.0
2023-08-19T22:11:46.166Z,0.0
2023-08-19T22:14:50.990Z,0.0
2023-08-19T22:17:56.931Z,0.0
2023-08-19T22:21:03.326Z,0.0
2023-08-19T22:24:08.220Z,0.0
2023-08-19T22:27:14.202Z,0.0
2023-08-19T22:30:19.693Z,0.0
2023-08-19T22:33:28.981Z,0.0
2023-08-19T22:36:35.031Z,0.0
2023-08-19T22:39:40.608Z,0.0
2023-08-19T22:42:45.836Z,0.0
2023-08-19T22:45:50.779Z,0.0
2023-08-19T22:49:01.653Z,0.0
2023-08-19T22:55:14.559Z,0.0
2023-08-19T22:58:19.507Z,0.0
2023-08-19T23:02:27.669Z,0.0
2023-08-19T23:05:34.077Z,0.0
2023-08-19T23:11:47.625Z,0.0
2023-08-19T23:14:52.608Z,0.0
2023-08-19T23:17:59.688Z,0.0
2023-08-19T23:21:04.981Z,0.0
2023-08-19T23:24:11.108Z,0.0
2023-08-19T23:27:16.061Z,0.0
2023-08-19T23:30:22.173Z,0.0
2023-08-19T23:33:27.798Z,1.08
2023-08-19T23:36:33.658Z,1.08
2023-08-19T23:39:39.247Z,0.0
2023-08-19T23:42:44.378Z,0.0
2023-08-19T23:45:49.577Z,0.0
2023-08-19T23:48:55.393Z,0.0
2023-08-19T23:52:00.809Z,0.0
2023-08-19T23:55:05.911Z,0.0
2023-08-19T23:58:11.131Z,0.0
